createdAt,value
2022-09-01T00:00:11.214Z,72.22
2022-09-01T00:02:38.283Z,72.50
2022-09-01T00:05:07.558Z,72.74
2022-09-01T00:07:35.417Z,73.17
2022-09-01T00:10:07.319Z,73.31
2022-09-01T00:12:36.107Z,72.81
2022-09-01T00:15:06.273Z,72.70
2022-09-01T00:17:33.804Z,73.16
2022-09-01T00:20:01.062Z,73.14
2022-09-01T00:22:29.437Z,73.51
2022-09-01T00:24:56.673Z,73.83
2022-09-01T00:27:27.919Z,73.93
2022-09-01T00:29:59.966Z,74.14
2022-09-01T00:32:27.911Z,74.92
2022-09-01T00:34:54.843Z,74.70
2022-09-01T00:37:21.791Z,74.49
2022-09-01T00:39:48.925Z,75.21
2022-09-01T00:42:15.848Z,75.31
2022-09-01T00:44:42.864Z,75.61
2022-09-01T00:47:09.880Z,75.88
2022-09-01T00:49:56.225Z,75.88
2022-09-01T00:52:34.046Z,75.98
2022-09-01T00:55:12.726Z,76.45
2022-09-01T00:57:40.900Z,76.73
2022-09-01T01:00:23.377Z,77.15
2022-09-01T01:02:56.179Z,76.91
2022-09-01T01:05:28.012Z,76.75
2022-09-01T01:07:56.091Z,76.77
2022-09-01T01:10:25.041Z,76.89
2022-09-01T01:12:52.596Z,77.21
2022-09-01T01:15:20.668Z,77.02
2022-09-01T01:17:47.722Z,77.22
2022-09-01T01:20:35.972Z,77.12
2022-09-01T01:23:25.842Z,77.75
2022-09-01T01:25:59.993Z,78.19
2022-09-01T01:28:33.642Z,78.58
2022-09-01T01:31:18.398Z,78.95
2022-09-01T01:33:54.265Z,79.08
2022-09-01T01:36:36.286Z,79.66
2022-09-01T01:39:16.386Z,79.39
2022-09-01T01:41:51.659Z,80.03
2022-09-01T01:44:28.285Z,79.75
2022-09-01T01:46:58.429Z,80.12
2022-09-01T01:49:29.141Z,80.32
2022-09-01T01:51:56.892Z,81.05
2022-09-01T01:54:32.491Z,80.94
2022-09-01T01:57:04.205Z,80.91
2022-09-01T01:59:33.419Z,81.74
2022-09-01T02:02:05.142Z,81.84
2022-09-01T02:04:34.183Z,81.77
2022-09-01T02:07:10.623Z,81.46
2022-09-01T02:09:40.857Z,81.32
2022-09-01T02:12:09.336Z,80.94
2022-09-01T02:14:36.444Z,81.11
2022-09-01T02:17:06.294Z,81.50
2022-09-01T02:22:22.099Z,81.78
2022-09-01T02:24:52.466Z,81.37
2022-09-01T02:27:24.481Z,81.91
2022-09-01T02:29:54.550Z,82.10
2022-09-01T02:32:22.090Z,81.96
2022-09-01T02:34:53.704Z,82.03
2022-09-01T02:37:25.789Z,82.63
2022-09-01T02:39:53.457Z,83.11
2022-09-01T02:42:25.154Z,83.46
2022-09-01T02:44:52.153Z,83.66
2022-09-01T02:47:20.207Z,83.57
2022-09-01T02:49:53.730Z,83.69
2022-09-01T02:52:20.725Z,83.88
2022-09-01T02:54:50.712Z,84.08
2022-09-01T02:57:18.008Z,83.98
2022-09-01T02:59:45.559Z,83.95
2022-09-01T03:02:12.624Z,84.85
2022-09-01T03:07:23.979Z,84.49
2022-09-01T03:09:52.653Z,85.28
2022-09-01T03:12:19.935Z,84.85
2022-09-01T03:14:46.975Z,85.12
2022-09-01T03:17:29.753Z,85.08
2022-09-01T03:19:57.225Z,84.99
2022-09-01T03:22:24.136Z,85.79
2022-09-01T03:24:51.145Z,85.68
2022-09-01T03:27:18.447Z,85.92
2022-09-01T03:29:45.852Z,85.70
2022-09-01T03:32:12.844Z,85.69
2022-09-01T03:34:53.721Z,86.21
2022-09-01T03:37:21.092Z,86.23
2022-09-01T03:39:48.150Z,85.46
2022-09-01T03:42:22.781Z,86.48
2022-09-01T03:44:51.989Z,86.12
2022-09-01T03:47:21.159Z,86.24
2022-09-01T03:49:53.594Z,87.13
2022-09-01T03:52:22.399Z,87.27
2022-09-01T03:54:57.639Z,87.66
2022-09-01T03:57:26.680Z,87.65
2022-09-01T04:00:00.635Z,87.18
2022-09-01T04:02:29.794Z,87.80
2022-09-01T04:04:59.002Z,87.36
2022-09-01T04:07:26.400Z,87.71
2022-09-01T04:09:53.425Z,88.06
2022-09-01T04:12:20.459Z,88.54
2022-09-01T04:14:51.502Z,88.36
2022-09-01T04:17:38.542Z,88.48
2022-09-01T04:20:09.183Z,88.05
2022-09-01T04:22:37.857Z,88.45
2022-09-01T04:25:06.752Z,88.51
2022-09-01T04:27:40.839Z,88.42
2022-09-01T04:30:11.068Z,89.05
2022-09-01T04:32:46.735Z,89.66
2022-09-01T04:35:17.126Z,89.47
2022-09-01T04:37:47.943Z,89.79
2022-09-01T04:40:15.601Z,90.35
2022-09-01T04:42:45.253Z,89.87
2022-09-01T04:45:14.625Z,90.96
2022-09-01T04:47:45.728Z,91.16
2022-09-01T04:50:17.604Z,92.20
2022-09-01T04:53:06.415Z,92.81
2022-09-01T04:55:43.656Z,92.72
2022-09-01T04:58:17.416Z,93.42
2022-09-01T05:00:52.333Z,93.23
2022-09-01T05:03:23.985Z,93.87
2022-09-01T05:06:00.139Z,94.52
2022-09-01T05:08:28.958Z,94.41
2022-09-01T05:11:07.752Z,95.13
2022-09-01T05:13:49.714Z,95.45
2022-09-01T05:16:25.011Z,95.38
2022-09-01T05:18:57.030Z,94.92
2022-09-01T05:21:29.715Z,95.30
2022-09-01T05:24:04.980Z,94.87
2022-09-01T05:26:34.552Z,94.59
2022-09-01T05:29:10.622Z,94.66
2022-09-01T05:31:38.785Z,94.36
2022-09-01T05:34:09.818Z,93.58
2022-09-01T05:36:43.911Z,93.73
2022-09-01T05:39:12.148Z,94.02
2022-09-01T05:41:40.914Z,94.35
2022-09-01T05:44:10.112Z,93.28
2022-09-01T05:46:39.916Z,93.64
2022-09-01T05:49:13.895Z,92.80
2022-09-01T05:52:00.574Z,91.74
2022-09-01T05:54:30.584Z,90.96
2022-09-01T05:57:33.332Z,89.68
2022-09-01T05:59:59.554Z,90.07
2022-09-01T06:02:28.459Z,90.22
2022-09-01T06:04:57.605Z,89.83
2022-09-01T06:07:32.784Z,90.31
2022-09-01T06:10:01.419Z,89.79
2022-09-01T06:12:28.952Z,89.83
2022-09-01T06:14:57.066Z,88.95
2022-09-01T06:17:26.893Z,88.22
2022-09-01T06:19:57.789Z,87.93
2022-09-01T06:22:29.058Z,87.47
2022-09-01T06:25:02.235Z,87.17
2022-09-01T06:27:33.796Z,86.90
2022-09-01T06:30:01.581Z,86.88
2022-09-01T06:32:33.696Z,87.03
2022-09-01T06:35:00.775Z,86.54
2022-09-01T06:37:28.886Z,86.53
2022-09-01T06:40:04.874Z,85.87
2022-09-01T06:42:41.651Z,85.20
2022-09-01T06:45:10.432Z,84.27
2022-09-01T06:47:37.959Z,82.94
2022-09-01T06:50:08.650Z,82.95
2022-09-01T06:55:39.134Z,83.57
2022-09-01T06:58:09.423Z,82.34
2022-09-01T07:00:42.962Z,82.37
2022-09-01T07:03:14.212Z,81.23
2022-09-01T07:06:08.944Z,80.97
2022-09-01T07:12:25.384Z,81.42
2022-09-01T07:17:30.598Z,79.74
2022-09-01T07:19:58.351Z,79.16
2022-09-01T07:25:14.067Z,78.94
2022-09-01T07:27:52.604Z,79.16
2022-09-01T07:42:59.633Z,78.37
2022-09-01T07:44:52.921Z,76.37
2022-09-01T07:47:52.826Z,75.21
2022-09-01T07:53:09.563Z,73.93
2022-09-01T07:55:44.272Z,74.01
2022-09-01T07:58:13.425Z,74.71
2022-09-01T08:00:46.235Z,74.28
2022-09-01T08:03:15.000Z,73.11
2022-09-01T08:05:41.989Z,72.02
2022-09-01T08:08:28.710Z,71.87
2022-09-01T08:11:04.356Z,71.50
2022-09-01T08:13:38.788Z,71.02
2022-09-01T08:16:16.880Z,69.60
2022-09-01T08:18:49.643Z,68.77
2022-09-01T08:21:43.067Z,68.10
2022-09-01T08:24:22.614Z,68.92
2022-09-01T08:26:49.646Z,70.00
2022-09-01T08:29:16.868Z,69.33
2022-09-01T08:31:47.071Z,67.95
2022-09-01T08:34:17.044Z,66.78
2022-09-01T08:36:44.056Z,67.17
2022-09-01T08:39:11.296Z,67.79
2022-09-01T08:42:19.456Z,66.58
2022-09-01T08:45:20.999Z,65.26
2022-09-01T08:48:22.511Z,65.16
2022-09-01T08:50:42.957Z,63.39
2022-09-01T08:53:32.688Z,62.12
2022-09-01T08:56:00.431Z,61.50
2022-09-01T08:58:32.299Z,62.23
2022-09-01T09:01:50.486Z,63.25
2022-09-01T09:04:54.812Z,61.83
2022-09-01T09:07:50.163Z,61.65
2022-09-01T09:10:27.282Z,61.60
2022-09-01T09:13:06.083Z,61.11
2022-09-01T09:16:08.934Z,59.71
2022-09-01T09:18:55.858Z,58.96
2022-09-01T09:21:37.045Z,58.33
2022-09-01T09:24:49.865Z,58.32
2022-09-01T09:27:19.928Z,57.63
2022-09-01T09:30:11.153Z,57.41
2022-09-01T09:33:30.997Z,57.20
2022-09-01T09:35:47.747Z,55.71
2022-09-01T09:38:33.037Z,56.14
2022-09-01T09:41:30.107Z,56.11
2022-09-01T09:44:20.670Z,56.58
2022-09-01T09:46:49.950Z,56.00
2022-09-01T09:49:35.133Z,55.31
2022-09-01T09:52:09.790Z,54.45
2022-09-01T09:54:40.347Z,54.59
2022-09-01T09:57:13.998Z,54.53
2022-09-01T10:00:04.679Z,54.83
2022-09-01T10:02:43.943Z,54.47
2022-09-01T10:05:33.508Z,54.54
2022-09-01T10:08:01.238Z,53.19
2022-09-01T10:10:41.835Z,52.17
2022-09-01T10:13:17.669Z,52.21
2022-09-01T10:15:51.317Z,52.53
2022-09-01T10:18:29.842Z,52.46
2022-09-01T10:21:25.885Z,53.00
2022-09-01T10:23:53.649Z,51.99
2022-09-01T10:26:47.066Z,51.83
2022-09-01T10:29:35.193Z,51.31
2022-09-01T10:32:34.617Z,49.90
2022-09-01T10:35:04.641Z,49.38
2022-09-01T10:37:32.168Z,48.47
2022-09-01T10:40:35.739Z,48.42
2022-09-01T10:43:50.506Z,49.11
2022-09-01T10:46:24.739Z,48.70
2022-09-01T10:49:02.851Z,48.40
2022-09-01T10:51:36.278Z,47.32
2022-09-01T10:54:06.781Z,48.49
2022-09-01T10:56:52.009Z,47.48
2022-09-01T10:59:50.214Z,48.74
2022-09-01T11:02:27.967Z,47.89
2022-09-01T11:04:56.210Z,48.24
2022-09-01T11:07:38.924Z,49.25
2022-09-01T11:10:35.250Z,47.66
2022-09-01T11:22:13.428Z,45.48
2022-09-01T11:24:41.232Z,44.08
2022-09-01T11:27:48.690Z,42.05
2022-09-01T11:30:25.343Z,41.28
2022-09-01T11:33:01.756Z,42.16
2022-09-01T11:35:29.652Z,42.14
2022-09-01T11:38:04.388Z,41.57
2022-09-01T11:40:34.469Z,42.66
2022-09-01T11:43:12.450Z,41.68
2022-09-01T11:46:15.970Z,41.03
2022-09-01T11:48:51.928Z,40.29
2022-09-01T11:51:21.389Z,40.77
2022-09-01T11:53:50.509Z,41.56
2022-09-01T11:56:27.271Z,41.88
2022-09-01T11:58:54.776Z,41.43
2022-09-01T12:01:21.778Z,40.41
2022-09-01T12:03:52.829Z,37.94
2022-09-01T12:06:26.292Z,36.92
2022-09-01T12:09:04.884Z,36.52
2022-09-01T12:11:35.146Z,37.02
2022-09-01T12:14:15.321Z,36.92
2022-09-01T12:16:42.949Z,36.96
2022-09-01T12:19:25.427Z,36.40
2022-09-01T12:22:07.703Z,36.18
2022-09-01T12:24:37.020Z,36.60
2022-09-01T12:27:14.115Z,37.66
2022-09-01T12:29:42.312Z,36.46
2022-09-01T12:32:10.283Z,36.71
2022-09-01T12:34:56.592Z,36.56
2022-09-01T12:37:26.359Z,37.51
2022-09-01T12:39:57.534Z,37.47
2022-09-01T12:42:40.887Z,37.90
2022-09-01T12:45:10.452Z,37.97
2022-09-01T12:47:37.551Z,38.74
2022-09-01T12:50:13.766Z,37.12
2022-09-01T12:52:52.495Z,36.65
2022-09-01T12:55:50.797Z,37.42
2022-09-01T12:58:25.709Z,36.26
2022-09-01T13:01:17.938Z,36.22
2022-09-01T13:04:10.471Z,36.57
2022-09-01T13:06:38.600Z,36.93
2022-09-01T13:09:05.708Z,36.20
2022-09-01T13:14:20.936Z,35.03
2022-09-01T13:16:48.356Z,34.97
2022-09-01T13:19:21.876Z,35.34
2022-09-01T13:21:54.357Z,35.18
2022-09-01T13:24:24.432Z,35.10
2022-09-01T13:29:44.977Z,36.34
2022-09-01T13:32:20.758Z,34.04
2022-09-01T13:34:56.214Z,35.13
2022-09-01T13:37:23.582Z,35.20
2022-09-01T13:39:52.071Z,34.60
2022-09-01T13:42:19.456Z,34.75
2022-09-01T13:44:49.732Z,36.26
2022-09-01T13:47:35.469Z,34.76
2022-09-01T13:50:11.318Z,34.85
2022-09-01T13:55:22.148Z,35.21
2022-09-01T13:57:52.656Z,35.91
2022-09-01T14:00:26.698Z,35.85
2022-09-01T14:02:57.452Z,35.30
2022-09-01T14:05:28.221Z,35.40
2022-09-01T14:08:07.018Z,35.70
2022-09-01T14:10:41.941Z,34.23
2022-09-01T14:13:10.530Z,34.21
2022-09-01T14:15:37.716Z,33.87
2022-09-01T14:18:05.117Z,33.98
2022-09-01T14:20:39.450Z,33.90
2022-09-01T14:23:25.977Z,33.62
2022-09-01T14:25:53.267Z,32.74
2022-09-01T14:28:23.146Z,33.02
2022-09-01T14:33:24.281Z,33.37
2022-09-01T14:35:51.690Z,32.88
2022-09-01T14:38:18.741Z,32.99
2022-09-01T14:40:48.742Z,33.78
2022-09-01T14:43:15.787Z,34.71
2022-09-01T14:45:47.030Z,33.83
2022-09-01T14:50:59.036Z,35.15
2022-09-01T14:53:26.032Z,35.64
2022-09-01T14:55:56.228Z,36.15
2022-09-01T14:58:26.449Z,35.58
2022-09-01T15:01:03.444Z,35.04
2022-09-01T15:03:35.092Z,36.30
2022-09-01T15:06:01.991Z,37.19
2022-09-01T15:08:28.953Z,37.57
2022-09-01T15:10:55.920Z,37.17
2022-09-01T15:13:22.908Z,35.98
2022-09-01T15:15:50.014Z,34.97
2022-09-01T15:18:17.161Z,35.17
2022-09-01T15:20:46.763Z,35.21
2022-09-01T15:23:25.952Z,34.80
2022-09-01T15:25:55.504Z,35.38
2022-09-01T15:28:22.740Z,35.99
2022-09-01T15:30:51.023Z,36.79
2022-09-01T15:33:21.310Z,37.32
2022-09-01T15:35:48.266Z,38.01
2022-09-01T15:38:17.919Z,38.56
2022-09-01T15:40:57.165Z,39.40
2022-09-01T15:43:25.491Z,40.12
2022-09-01T15:45:52.417Z,40.49
2022-09-01T15:48:19.410Z,37.99
2022-09-01T15:50:46.345Z,37.45
2022-09-01T15:55:54.217Z,37.05
2022-09-01T15:58:22.944Z,36.55
2022-09-01T16:00:51.810Z,37.13
2022-09-01T16:03:19.167Z,37.41
2022-09-01T16:05:46.149Z,38.52
2022-09-01T16:08:13.790Z,38.09
2022-09-01T16:10:42.361Z,37.86
2022-09-01T16:13:10.791Z,38.04
2022-09-01T16:15:48.624Z,38.74
2022-09-01T16:18:49.157Z,37.36
2022-09-01T16:21:43.246Z,37.86
2022-09-01T16:24:13.305Z,37.93
2022-09-01T16:26:41.249Z,38.16
2022-09-01T16:29:45.761Z,38.62
2022-09-01T16:32:13.788Z,39.09
2022-09-01T16:37:54.468Z,39.07
2022-09-01T16:40:35.969Z,39.47
2022-09-01T16:43:34.489Z,39.97
2022-09-01T16:46:11.409Z,39.76
2022-09-01T16:48:55.114Z,40.00
2022-09-01T16:51:42.447Z,39.40
2022-09-01T16:54:37.135Z,39.52
2022-09-01T16:57:22.615Z,39.46
2022-09-01T16:59:58.609Z,39.37
2022-09-01T17:03:08.085Z,40.01
2022-09-01T17:05:56.132Z,40.99
2022-09-01T17:11:49.076Z,42.08
2022-09-01T17:14:39.634Z,41.75
2022-09-01T17:17:33.106Z,42.15
2022-09-01T17:20:02.257Z,42.68
2022-09-01T17:22:31.174Z,42.65
2022-09-01T17:25:07.632Z,43.02
2022-09-01T17:27:59.466Z,42.82
2022-09-01T17:30:27.041Z,42.84
2022-09-01T17:33:23.165Z,43.22
2022-09-01T17:36:03.844Z,43.61
2022-09-01T17:39:04.162Z,43.96
2022-09-01T17:41:55.630Z,44.22
2022-09-01T17:44:57.652Z,44.41
2022-09-01T17:47:53.530Z,45.09
2022-09-01T17:50:33.338Z,44.71
2022-09-01T17:53:43.083Z,45.34
2022-09-01T17:56:39.290Z,45.59
2022-09-01T17:59:14.445Z,45.80
2022-09-01T18:02:31.215Z,46.03
2022-09-01T18:05:34.994Z,45.89
2022-09-01T18:08:30.626Z,46.13
2022-09-01T18:11:11.538Z,46.17
2022-09-01T18:13:55.767Z,46.36
2022-09-01T18:16:31.019Z,46.81
2022-09-01T18:19:06.786Z,46.81
2022-09-01T18:21:39.395Z,46.66
2022-09-01T18:24:24.977Z,46.78
2022-09-01T18:26:53.012Z,47.34
2022-09-01T18:29:20.544Z,47.74
2022-09-01T18:32:27.919Z,47.73
2022-09-01T18:35:29.761Z,47.78
2022-09-01T18:38:19.407Z,48.03
2022-09-01T18:41:21.718Z,48.07
2022-09-01T18:44:13.739Z,48.39
2022-09-01T18:47:20.880Z,48.79
2022-09-01T18:50:12.117Z,49.35
2022-09-01T18:53:33.080Z,49.49
2022-09-01T18:56:22.200Z,49.38
2022-09-01T18:59:19.127Z,49.53
2022-09-01T19:02:03.258Z,49.99
2022-09-01T19:04:41.294Z,50.23
2022-09-01T19:10:57.199Z,50.56
2022-09-01T19:13:34.532Z,50.80
2022-09-01T19:16:23.169Z,50.71
2022-09-01T19:19:13.974Z,51.07
2022-09-01T19:21:43.678Z,51.33
2022-09-01T19:24:23.978Z,51.90
2022-09-01T19:26:57.972Z,51.98
2022-09-01T19:29:34.020Z,52.31
2022-09-01T19:32:07.202Z,52.19
2022-09-01T19:37:16.178Z,52.37
2022-09-01T19:39:49.785Z,52.57
2022-09-01T19:42:36.678Z,53.02
2022-09-01T19:45:13.277Z,52.94
2022-09-01T19:47:50.528Z,53.17
2022-09-01T19:50:51.945Z,53.38
2022-09-01T19:53:51.673Z,53.76
2022-09-01T19:56:49.696Z,53.93
2022-09-01T19:59:28.306Z,53.74
2022-09-01T20:02:24.254Z,53.82
2022-09-01T20:05:12.472Z,54.06
2022-09-01T20:07:54.630Z,54.38
2022-09-01T20:10:55.250Z,54.36
2022-09-01T20:13:48.792Z,54.75
2022-09-01T20:16:44.163Z,54.91
2022-09-01T20:19:57.036Z,54.83
2022-09-01T20:22:55.411Z,54.71
2022-09-01T20:25:30.701Z,55.04
2022-09-01T20:28:51.433Z,55.17
2022-09-01T20:31:31.023Z,55.38
2022-09-01T20:34:12.111Z,55.60
2022-09-01T20:36:46.106Z,55.84
2022-09-01T20:40:02.238Z,56.11
2022-09-01T20:42:59.070Z,56.22
2022-09-01T20:45:28.617Z,56.67
2022-09-01T20:48:01.758Z,57.12
2022-09-01T20:51:02.952Z,56.86
2022-09-01T20:54:17.576Z,57.30
2022-09-01T20:57:19.922Z,57.36
2022-09-01T21:00:03.274Z,57.58
2022-09-01T21:03:19.661Z,57.79
2022-09-01T21:06:12.898Z,57.80
2022-09-01T21:08:57.042Z,58.29
2022-09-01T21:11:43.172Z,58.24
2022-09-01T21:14:16.112Z,58.39
2022-09-01T21:16:52.002Z,58.56
2022-09-01T21:19:31.331Z,58.82
2022-09-01T21:22:11.251Z,58.85
2022-09-01T21:24:41.868Z,59.08
2022-09-01T21:27:17.822Z,59.22
2022-09-01T21:30:02.056Z,59.49
2022-09-01T21:32:31.723Z,59.62
2022-09-01T21:34:58.766Z,59.72
2022-09-01T21:37:28.051Z,60.09
2022-09-01T21:39:56.061Z,60.01
2022-09-01T21:42:41.718Z,60.18
2022-09-01T21:45:13.240Z,60.46
2022-09-01T21:47:43.301Z,60.73
2022-09-01T21:50:11.790Z,60.91
2022-09-01T21:52:38.987Z,61.00
2022-09-01T21:55:07.861Z,61.19
2022-09-01T21:57:36.445Z,61.51
2022-09-01T22:00:12.092Z,61.96
2022-09-01T22:02:42.122Z,61.92
2022-09-01T22:05:10.312Z,62.16
2022-09-01T22:07:40.422Z,62.60
2022-09-01T22:10:12.670Z,62.44
2022-09-01T22:12:43.817Z,62.91
2022-09-01T22:15:14.151Z,62.88
2022-09-01T22:17:41.833Z,62.98
2022-09-01T22:20:12.734Z,62.97
2022-09-01T22:22:40.089Z,63.52
2022-09-01T22:25:11.943Z,63.50
2022-09-01T22:27:39.767Z,63.29
2022-09-01T22:30:08.851Z,63.61
2022-09-01T22:32:38.888Z,64.03
2022-09-01T22:35:09.619Z,64.35
2022-09-01T22:37:37.759Z,64.27
2022-09-01T22:40:07.747Z,64.72
2022-09-01T22:42:35.286Z,64.90
2022-09-01T22:45:13.373Z,65.17
2022-09-01T22:47:41.021Z,65.30
2022-09-01T22:50:10.022Z,65.52
2022-09-01T22:52:38.338Z,65.85
2022-09-01T22:55:07.019Z,66.06
2022-09-01T22:57:35.750Z,65.86
2022-09-01T23:00:09.910Z,66.36
2022-09-01T23:02:37.004Z,66.81
2022-09-01T23:05:06.066Z,66.82
2022-09-01T23:07:35.167Z,66.97
2022-09-01T23:10:07.449Z,66.79
2022-09-01T23:12:34.784Z,67.37
2022-09-01T23:15:01.867Z,67.40
2022-09-01T23:17:28.887Z,67.40
2022-09-01T23:19:56.942Z,67.55
2022-09-01T23:22:24.094Z,68.10
2022-09-01T23:24:51.066Z,68.22
2022-09-01T23:27:18.952Z,68.19
2022-09-01T23:29:45.902Z,68.63
2022-09-01T23:32:12.946Z,68.80
2022-09-01T23:34:39.879Z,69.33
2022-09-01T23:37:07.863Z,69.10
2022-09-01T23:39:34.907Z,69.42
2022-09-01T23:42:01.878Z,69.54
2022-09-01T23:44:28.878Z,69.75
2022-09-01T23:46:55.917Z,69.98
2022-09-01T23:49:22.912Z,69.71
2022-09-01T23:51:53.348Z,70.52
2022-09-01T23:54:21.025Z,70.60
2022-09-01T23:56:48.191Z,70.98
2022-09-01T23:59:15.847Z,71.13
